Terminal Aerodrome Forecast
Issued by NWS

Home | Current Version | Previous Version | Text Only | Print | Product List | Glossary On
Versions: 1 2 3 4 5 6 7 8 9 10 11 12 13
289
FTUS44 KTSA 121132
TAFBVO
TAF
KBVO 121132Z 1212/1312 32004KT P6SM FEW200
     FM121500 36011KT P6SM FEW015 SCT200
     FM121800 02011KT P6SM BKN150
     FM130000 03008KT P6SM BKN120=

USA.gov is the U.S. government's official web portal to all federal, state and local government web resources and services.